sensor_id;sensor_type;location;lat;lon;timestamp;P1;durP1;ratioP1;P2;durP2;ratioP2
13683;SDS011;6914;53.552;9.908;2023-04-24T00:02:12;11.40;;;10.30;;
13683;SDS011;6914;53.552;9.908;2023-04-24T00:04:38;12.80;;;11.10;;
13683;SDS011;6914;53.552;9.908;2023-04-24T00:07:07;14.63;;;11.60;;
13683;SDS011;6914;53.552;9.908;2023-04-24T00:09:34;12.13;;;11.03;;
13683;SDS011;6914;53.552;9.908;2023-04-24T00:12:01;11.50;;;10.37;;
13683;SDS011;6914;53.552;9.908;2023-04-24T00:14:29;10.77;;;9.87;;
13683;SDS011;6914;53.552;9.908;2023-04-24T00:16:56;11.70;;;10.50;;
13683;SDS011;6914;53.552;9.908;2023-04-24T00:19:23;12.67;;;11.47;;
13683;SDS011;6914;53.552;9.908;2023-04-24T00:21:49;11.73;;;10.63;;
13683;SDS011;6914;53.552;9.908;2023-04-24T00:24:18;13.37;;;11.47;;
13683;SDS011;6914;53.552;9.908;2023-04-24T00:26:45;12.10;;;11.00;;
13683;SDS011;6914;53.552;9.908;2023-04-24T00:29:12;11.90;;;10.77;;
13683;SDS011;6914;53.552;9.908;2023-04-24T00:31:39;11.93;;;10.67;;
13683;SDS011;6914;53.552;9.908;2023-04-24T00:34:06;13.20;;;12.00;;
13683;SDS011;6914;53.552;9.908;2023-04-24T00:36:33;12.60;;;10.97;;
13683;SDS011;6914;53.552;9.908;2023-04-24T00:39:00;15.70;;;11.83;;
13683;SDS011;6914;53.552;9.908;2023-04-24T00:41:28;16.90;;;11.70;;
13683;SDS011;6914;53.552;9.908;2023-04-24T00:43:56;12.30;;;11.20;;
13683;SDS011;6914;53.552;9.908;2023-04-24T00:46:23;12.63;;;11.00;;
13683;SDS011;6914;53.552;9.908;2023-04-24T00:48:50;12.57;;;11.40;;
13683;SDS011;6914;53.552;9.908;2023-04-24T00:51:22;15.73;;;11.43;;
13683;SDS011;6914;53.552;9.908;2023-04-24T00:53:49;12.13;;;10.80;;
13683;SDS011;6914;53.552;9.908;2023-04-24T00:56:17;13.20;;;11.10;;
13683;SDS011;6914;53.552;9.908;2023-04-24T00:58:46;12.47;;;11.30;;
13683;SDS011;6914;53.552;9.908;2023-04-24T01:01:13;14.90;;;12.17;;
13683;SDS011;6914;53.552;9.908;2023-04-24T01:03:40;11.47;;;10.27;;
13683;SDS011;6914;53.552;9.908;2023-04-24T01:06:07;12.13;;;9.83;;
13683;SDS011;6914;53.552;9.908;2023-04-24T01:08:36;10.93;;;9.27;;
13683;SDS011;6914;53.552;9.908;2023-04-24T01:11:04;15.50;;;9.00;;
13683;SDS011;6914;53.552;9.908;2023-04-24T01:13:32;7.77;;;7.27;;
13683;SDS011;6914;53.552;9.908;2023-04-24T01:16:01;8.20;;;7.60;;
13683;SDS011;6914;53.552;9.908;2023-04-24T01:18:28;8.60;;;7.90;;
13683;SDS011;6914;53.552;9.908;2023-04-24T01:20:56;8.93;;;8.23;;
13683;SDS011;6914;53.552;9.908;2023-04-24T01:23:26;8.00;;;7.20;;
13683;SDS011;6914;53.552;9.908;2023-04-24T01:25:53;7.53;;;6.73;;
13683;SDS011;6914;53.552;9.908;2023-04-24T01:28:23;7.47;;;7.00;;
13683;SDS011;6914;53.552;9.908;2023-04-24T01:30:50;7.87;;;7.10;;
13683;SDS011;6914;53.552;9.908;2023-04-24T01:33:18;7.63;;;7.03;;
13683;SDS011;6914;53.552;9.908;2023-04-24T01:35:47;10.07;;;6.40;;
13683;SDS011;6914;53.552;9.908;2023-04-24T01:38:15;7.30;;;6.80;;
13683;SDS011;6914;53.552;9.908;2023-04-24T01:40:43;9.10;;;6.30;;
13683;SDS011;6914;53.552;9.908;2023-04-24T01:43:11;7.03;;;6.53;;
13683;SDS011;6914;53.552;9.908;2023-04-24T01:45:38;7.13;;;6.57;;
13683;SDS011;6914;53.552;9.908;2023-04-24T01:48:05;6.47;;;5.97;;
13683;SDS011;6914;53.552;9.908;2023-04-24T01:50:32;6.60;;;6.10;;
13683;SDS011;6914;53.552;9.908;2023-04-24T01:52:59;11.00;;;5.90;;
13683;SDS011;6914;53.552;9.908;2023-04-24T01:55:26;7.00;;;6.37;;
13683;SDS011;6914;53.552;9.908;2023-04-24T01:57:55;4.77;;;4.43;;
13683;SDS011;6914;53.552;9.908;2023-04-24T02:00:25;5.20;;;4.80;;
13683;SDS011;6914;53.552;9.908;2023-04-24T02:02:52;4.77;;;4.57;;
13683;SDS011;6914;53.552;9.908;2023-04-24T02:05:19;4.10;;;3.90;;
13683;SDS011;6914;53.552;9.908;2023-04-24T02:07:46;3.83;;;3.63;;
13683;SDS011;6914;53.552;9.908;2023-04-24T02:10:13;3.93;;;3.30;;
13683;SDS011;6914;53.552;9.908;2023-04-24T02:12:40;3.33;;;3.13;;
13683;SDS011;6914;53.552;9.908;2023-04-24T02:15:09;3.00;;;2.90;;
13683;SDS011;6914;53.552;9.908;2023-04-24T02:17:36;3.10;;;3.00;;
13683;SDS011;6914;53.552;9.908;2023-04-24T02:20:04;2.83;;;2.63;;
13683;SDS011;6914;53.552;9.908;2023-04-24T02:22:31;2.67;;;2.57;;
13683;SDS011;6914;53.552;9.908;2023-04-24T02:25:00;2.63;;;2.53;;
13683;SDS011;6914;53.552;9.908;2023-04-24T02:27:27;3.03;;;2.83;;
13683;SDS011;6914;53.552;9.908;2023-04-24T02:29:54;3.73;;;3.10;;
13683;SDS011;6914;53.552;9.908;2023-04-24T02:32:23;3.53;;;3.10;;
13683;SDS011;6914;53.552;9.908;2023-04-24T02:34:50;3.90;;;3.60;;
13683;SDS011;6914;53.552;9.908;2023-04-24T02:37:16;3.97;;;3.77;;
13683;SDS011;6914;53.552;9.908;2023-04-24T02:39:43;9.20;;;4.20;;
13683;SDS011;6914;53.552;9.908;2023-04-24T02:42:10;9.83;;;5.20;;
13683;SDS011;6914;53.552;9.908;2023-04-24T02:44:37;6.93;;;4.60;;
13683;SDS011;6914;53.552;9.908;2023-04-24T02:47:04;5.37;;;4.80;;
13683;SDS011;6914;53.552;9.908;2023-04-24T02:49:32;5.50;;;5.00;;
13683;SDS011;6914;53.552;9.908;2023-04-24T02:52:01;6.23;;;4.47;;
13683;SDS011;6914;53.552;9.908;2023-04-24T02:54:27;6.23;;;4.47;;
13683;SDS011;6914;53.552;9.908;2023-04-24T02:56:54;6.20;;;4.77;;
13683;SDS011;6914;53.552;9.908;2023-04-24T02:59:22;4.83;;;4.53;;
13683;SDS011;6914;53.552;9.908;2023-04-24T03:01:49;4.90;;;4.50;;
13683;SDS011;6914;53.552;9.908;2023-04-24T03:04:16;5.43;;;5.03;;
13683;SDS011;6914;53.552;9.908;2023-04-24T03:06:46;8.40;;;4.70;;
13683;SDS011;6914;53.552;9.908;2023-04-24T03:09:13;6.93;;;4.47;;
13683;SDS011;6914;53.552;9.908;2023-04-24T03:11:40;11.10;;;5.10;;
13683;SDS011;6914;53.552;9.908;2023-04-24T03:14:07;5.53;;;5.10;;
13683;SDS011;6914;53.552;9.908;2023-04-24T03:16:34;4.40;;;4.10;;
13683;SDS011;6914;53.552;9.908;2023-04-24T03:19:01;5.30;;;4.80;;
13683;SDS011;6914;53.552;9.908;2023-04-24T03:21:28;4.73;;;4.33;;
13683;SDS011;6914;53.552;9.908;2023-04-24T03:23:57;5.37;;;3.77;;
13683;SDS011;6914;53.552;9.908;2023-04-24T03:26:25;4.93;;;4.53;;
13683;SDS011;6914;53.552;9.908;2023-04-24T03:28:52;3.97;;;3.50;;
13683;SDS011;6914;53.552;9.908;2023-04-24T03:31:19;3.03;;;2.87;;
13683;SDS011;6914;53.552;9.908;2023-04-24T03:33:46;3.97;;;3.20;;
13683;SDS011;6914;53.552;9.908;2023-04-24T03:36:13;3.07;;;2.87;;
13683;SDS011;6914;53.552;9.908;2023-04-24T03:38:40;3.50;;;3.40;;
13683;SDS011;6914;53.552;9.908;2023-04-24T03:41:08;4.23;;;3.90;;
13683;SDS011;6914;53.552;9.908;2023-04-24T03:43:35;3.90;;;3.60;;
13683;SDS011;6914;53.552;9.908;2023-04-24T03:46:02;3.10;;;3.00;;
13683;SDS011;6914;53.552;9.908;2023-04-24T03:48:30;2.47;;;2.37;;
13683;SDS011;6914;53.552;9.908;2023-04-24T03:50:56;3.80;;;2.57;;
13683;SDS011;6914;53.552;9.908;2023-04-24T03:53:24;2.43;;;2.33;;
13683;SDS011;6914;53.552;9.908;2023-04-24T03:55:51;3.10;;;2.90;;
13683;SDS011;6914;53.552;9.908;2023-04-24T03:58:20;2.63;;;2.53;;
13683;SDS011;6914;53.552;9.908;2023-04-24T04:00:47;2.57;;;2.43;;
13683;SDS011;6914;53.552;9.908;2023-04-24T04:03:14;8.43;;;2.90;;
13683;SDS011;6914;53.552;9.908;2023-04-24T04:05:41;2.70;;;2.60;;
13683;SDS011;6914;53.552;9.908;2023-04-24T04:08:08;2.50;;;2.40;;
13683;SDS011;6914;53.552;9.908;2023-04-24T04:10:35;3.13;;;2.53;;
13683;SDS011;6914;53.552;9.908;2023-04-24T04:13:02;3.00;;;2.90;;
13683;SDS011;6914;53.552;9.908;2023-04-24T04:15:30;3.10;;;2.90;;
13683;SDS011;6914;53.552;9.908;2023-04-24T04:17:57;2.40;;;2.23;;
13683;SDS011;6914;53.552;9.908;2023-04-24T04:20:25;2.70;;;2.50;;
13683;SDS011;6914;53.552;9.908;2023-04-24T04:22:52;4.20;;;2.23;;
13683;SDS011;6914;53.552;9.908;2023-04-24T04:25:19;2.50;;;2.30;;
13683;SDS011;6914;53.552;9.908;2023-04-24T04:27:46;2.63;;;2.27;;
13683;SDS011;6914;53.552;9.908;2023-04-24T04:30:13;2.33;;;2.23;;
13683;SDS011;6914;53.552;9.908;2023-04-24T04:32:42;1.93;;;1.83;;
13683;SDS011;6914;53.552;9.908;2023-04-24T04:35:09;2.30;;;2.20;;
13683;SDS011;6914;53.552;9.908;2023-04-24T04:37:36;2.17;;;2.00;;
13683;SDS011;6914;53.552;9.908;2023-04-24T04:40:03;2.40;;;2.13;;
13683;SDS011;6914;53.552;9.908;2023-04-24T04:42:32;2.13;;;2.03;;
13683;SDS011;6914;53.552;9.908;2023-04-24T04:44:59;2.30;;;2.20;;
13683;SDS011;6914;53.552;9.908;2023-04-24T04:47:29;2.30;;;2.20;;
13683;SDS011;6914;53.552;9.908;2023-04-24T04:49:58;3.73;;;1.90;;
13683;SDS011;6914;53.552;9.908;2023-04-24T04:52:28;17.13;;;2.00;;
13683;SDS011;6914;53.552;9.908;2023-04-24T04:54:55;1.80;;;1.70;;
13683;SDS011;6914;53.552;9.908;2023-04-24T04:57:22;1.80;;;1.70;;
13683;SDS011;6914;53.552;9.908;2023-04-24T04:59:50;3.43;;;2.07;;
13683;SDS011;6914;53.552;9.908;2023-04-24T05:02:19;5.10;;;1.83;;
13683;SDS011;6914;53.552;9.908;2023-04-24T05:04:46;2.90;;;2.10;;
13683;SDS011;6914;53.552;9.908;2023-04-24T05:07:17;15.50;;;1.90;;
13683;SDS011;6914;53.552;9.908;2023-04-24T05:09:45;2.27;;;2.17;;
13683;SDS011;6914;53.552;9.908;2023-04-24T05:12:15;3.50;;;1.73;;
13683;SDS011;6914;53.552;9.908;2023-04-24T05:14:44;2.47;;;2.27;;
13683;SDS011;6914;53.552;9.908;2023-04-24T05:17:11;1.70;;;1.70;;
13683;SDS011;6914;53.552;9.908;2023-04-24T05:19:39;3.20;;;2.10;;
13683;SDS011;6914;53.552;9.908;2023-04-24T05:22:06;2.80;;;2.37;;
13683;SDS011;6914;53.552;9.908;2023-04-24T05:24:36;1.70;;;1.60;;
13683;SDS011;6914;53.552;9.908;2023-04-24T05:27:04;2.73;;;2.57;;
13683;SDS011;6914;53.552;9.908;2023-04-24T05:29:31;2.30;;;2.10;;
13683;SDS011;6914;53.552;9.908;2023-04-24T05:31:59;3.47;;;2.27;;
13683;SDS011;6914;53.552;9.908;2023-04-24T05:34:30;2.40;;;2.17;;
13683;SDS011;6914;53.552;9.908;2023-04-24T05:37:06;3.47;;;2.53;;
13683;SDS011;6914;53.552;9.908;2023-04-24T05:39:35;2.00;;;1.87;;
13683;SDS011;6914;53.552;9.908;2023-04-24T05:42:06;3.00;;;1.90;;
13683;SDS011;6914;53.552;9.908;2023-04-24T05:44:33;2.03;;;1.60;;
13683;SDS011;6914;53.552;9.908;2023-04-24T05:47:01;1.40;;;1.30;;
13683;SDS011;6914;53.552;9.908;2023-04-24T05:49:31;2.13;;;1.63;;
13683;SDS011;6914;53.552;9.908;2023-04-24T05:51:59;1.80;;;1.70;;
13683;SDS011;6914;53.552;9.908;2023-04-24T05:54:29;6.40;;;2.00;;
13683;SDS011;6914;53.552;9.908;2023-04-24T05:56:57;3.73;;;2.23;;
13683;SDS011;6914;53.552;9.908;2023-04-24T05:59:24;1.57;;;1.57;;
13683;SDS011;6914;53.552;9.908;2023-04-24T06:01:56;2.00;;;1.90;;
13683;SDS011;6914;53.552;9.908;2023-04-24T06:04:24;2.30;;;2.20;;
13683;SDS011;6914;53.552;9.908;2023-04-24T06:06:51;2.00;;;1.90;;
13683;SDS011;6914;53.552;9.908;2023-04-24T06:09:20;4.10;;;1.93;;
13683;SDS011;6914;53.552;9.908;2023-04-24T06:11:49;2.00;;;1.90;;
13683;SDS011;6914;53.552;9.908;2023-04-24T06:14:20;2.03;;;1.93;;
13683;SDS011;6914;53.552;9.908;2023-04-24T06:16:47;1.90;;;1.80;;
13683;SDS011;6914;53.552;9.908;2023-04-24T06:19:14;1.37;;;1.37;;
13683;SDS011;6914;53.552;9.908;2023-04-24T06:21:43;2.03;;;1.93;;
13683;SDS011;6914;53.552;9.908;2023-04-24T06:24:13;2.60;;;2.10;;
13683;SDS011;6914;53.552;9.908;2023-04-24T06:26:42;2.37;;;2.20;;
13683;SDS011;6914;53.552;9.908;2023-04-24T06:29:09;2.53;;;1.93;;
13683;SDS011;6914;53.552;9.908;2023-04-24T06:31:40;3.23;;;2.40;;
13683;SDS011;6914;53.552;9.908;2023-04-24T06:34:07;2.10;;;2.00;;
13683;SDS011;6914;53.552;9.908;2023-04-24T06:36:34;2.33;;;2.23;;
13683;SDS011;6914;53.552;9.908;2023-04-24T06:39:01;4.60;;;2.60;;
13683;SDS011;6914;53.552;9.908;2023-04-24T06:41:29;4.60;;;2.60;;
13683;SDS011;6914;53.552;9.908;2023-04-24T06:43:56;7.73;;;2.20;;
13683;SDS011;6914;53.552;9.908;2023-04-24T06:46:24;2.77;;;2.53;;
13683;SDS011;6914;53.552;9.908;2023-04-24T06:48:56;4.80;;;3.50;;
13683;SDS011;6914;53.552;9.908;2023-04-24T06:51:25;2.90;;;2.80;;
13683;SDS011;6914;53.552;9.908;2023-04-24T06:53:53;2.60;;;2.40;;
13683;SDS011;6914;53.552;9.908;2023-04-24T06:56:21;3.00;;;2.90;;
13683;SDS011;6914;53.552;9.908;2023-04-24T06:58:48;10.70;;;2.77;;
13683;SDS011;6914;53.552;9.908;2023-04-24T07:01:18;3.20;;;3.00;;
13683;SDS011;6914;53.552;9.908;2023-04-24T07:03:45;4.07;;;3.67;;
13683;SDS011;6914;53.552;9.908;2023-04-24T07:06:14;3.50;;;3.40;;
13683;SDS011;6914;53.552;9.908;2023-04-24T07:08:43;2.87;;;2.77;;
13683;SDS011;6914;53.552;9.908;2023-04-24T07:11:10;4.50;;;4.30;;
13683;SDS011;6914;53.552;9.908;2023-04-24T07:13:37;4.20;;;3.87;;
13683;SDS011;6914;53.552;9.908;2023-04-24T07:16:06;3.43;;;3.23;;
13683;SDS011;6914;53.552;9.908;2023-04-24T07:18:33;8.93;;;3.17;;
13683;SDS011;6914;53.552;9.908;2023-04-24T07:21:02;4.87;;;4.60;;
13683;SDS011;6914;53.552;9.908;2023-04-24T07:23:38;4.60;;;4.30;;
13683;SDS011;6914;53.552;9.908;2023-04-24T07:26:09;4.23;;;4.10;;
13683;SDS011;6914;53.552;9.908;2023-04-24T07:28:36;4.40;;;4.10;;
13683;SDS011;6914;53.552;9.908;2023-04-24T07:31:03;5.47;;;5.17;;
13683;SDS011;6914;53.552;9.908;2023-04-24T07:33:33;4.97;;;4.70;;
13683;SDS011;6914;53.552;9.908;2023-04-24T07:36:01;4.10;;;3.97;;
13683;SDS011;6914;53.552;9.908;2023-04-24T07:38:32;5.40;;;5.20;;
13683;SDS011;6914;53.552;9.908;2023-04-24T07:41:03;4.90;;;4.70;;
13683;SDS011;6914;53.552;9.908;2023-04-24T07:43:34;5.40;;;5.07;;
13683;SDS011;6914;53.552;9.908;2023-04-24T07:46:01;6.00;;;5.80;;
13683;SDS011;6914;53.552;9.908;2023-04-24T07:48:29;5.83;;;5.30;;
13683;SDS011;6914;53.552;9.908;2023-04-24T07:50:59;4.90;;;4.67;;
13683;SDS011;6914;53.552;9.908;2023-04-24T07:53:28;5.77;;;5.37;;
13683;SDS011;6914;53.552;9.908;2023-04-24T07:55:55;6.17;;;5.77;;
13683;SDS011;6914;53.552;9.908;2023-04-24T07:58:24;6.70;;;6.23;;
13683;SDS011;6914;53.552;9.908;2023-04-24T08:00:51;5.40;;;5.10;;
13683;SDS011;6914;53.552;9.908;2023-04-24T08:03:18;6.20;;;5.90;;
13683;SDS011;6914;53.552;9.908;2023-04-24T08:05:45;5.87;;;5.30;;
13683;SDS011;6914;53.552;9.908;2023-04-24T08:08:13;26.27;;;5.63;;
13683;SDS011;6914;53.552;9.908;2023-04-24T08:10:43;4.90;;;4.70;;
13683;SDS011;6914;53.552;9.908;2023-04-24T08:13:10;5.97;;;5.60;;
13683;SDS011;6914;53.552;9.908;2023-04-24T08:15:39;6.57;;;6.13;;
13683;SDS011;6914;53.552;9.908;2023-04-24T08:18:14;7.03;;;6.47;;
13683;SDS011;6914;53.552;9.908;2023-04-24T08:20:42;10.27;;;7.27;;
13683;SDS011;6914;53.552;9.908;2023-04-24T08:23:10;7.53;;;7.03;;
13683;SDS011;6914;53.552;9.908;2023-04-24T08:25:38;6.73;;;6.10;;
13683;SDS011;6914;53.552;9.908;2023-04-24T08:28:13;7.00;;;6.60;;
13683;SDS011;6914;53.552;9.908;2023-04-24T08:30:49;6.70;;;6.13;;
13683;SDS011;6914;53.552;9.908;2023-04-24T08:33:19;6.97;;;6.43;;
13683;SDS011;6914;53.552;9.908;2023-04-24T08:35:46;12.73;;;6.07;;
13683;SDS011;6914;53.552;9.908;2023-04-24T08:38:15;7.23;;;6.67;;
13683;SDS011;6914;53.552;9.908;2023-04-24T08:40:43;6.67;;;6.20;;
13683;SDS011;6914;53.552;9.908;2023-04-24T08:43:13;7.40;;;6.73;;
13683;SDS011;6914;53.552;9.908;2023-04-24T08:45:42;6.70;;;6.10;;
13683;SDS011;6914;53.552;9.908;2023-04-24T08:48:12;7.40;;;7.00;;
13683;SDS011;6914;53.552;9.908;2023-04-24T08:50:41;8.40;;;7.80;;
13683;SDS011;6914;53.552;9.908;2023-04-24T08:53:11;8.43;;;7.87;;
13683;SDS011;6914;53.552;9.908;2023-04-24T08:55:38;8.37;;;7.87;;
13683;SDS011;6914;53.552;9.908;2023-04-24T08:58:08;7.67;;;6.80;;
13683;SDS011;6914;53.552;9.908;2023-04-24T09:00:39;8.50;;;7.97;;
13683;SDS011;6914;53.552;9.908;2023-04-24T09:03:13;8.57;;;7.77;;
13683;SDS011;6914;53.552;9.908;2023-04-24T09:05:46;8.50;;;8.00;;
13683;SDS011;6914;53.552;9.908;2023-04-24T09:08:16;8.27;;;7.73;;
13683;SDS011;6914;53.552;9.908;2023-04-24T09:10:46;8.10;;;7.40;;
13683;SDS011;6914;53.552;9.908;2023-04-24T09:13:18;8.07;;;7.57;;
13683;SDS011;6914;53.552;9.908;2023-04-24T09:15:46;8.00;;;7.50;;
13683;SDS011;6914;53.552;9.908;2023-04-24T09:18:15;7.50;;;6.83;;
13683;SDS011;6914;53.552;9.908;2023-04-24T09:20:57;8.57;;;7.87;;
13683;SDS011;6914;53.552;9.908;2023-04-24T09:23:25;7.20;;;6.70;;
13683;SDS011;6914;53.552;9.908;2023-04-24T09:25:54;7.50;;;6.90;;
13683;SDS011;6914;53.552;9.908;2023-04-24T09:28:30;7.93;;;7.23;;
13683;SDS011;6914;53.552;9.908;2023-04-24T09:31:04;7.53;;;6.93;;
13683;SDS011;6914;53.552;9.908;2023-04-24T09:33:36;8.30;;;7.70;;
13683;SDS011;6914;53.552;9.908;2023-04-24T09:36:04;7.30;;;6.73;;
13683;SDS011;6914;53.552;9.908;2023-04-24T09:38:35;7.60;;;7.10;;
13683;SDS011;6914;53.552;9.908;2023-04-24T09:41:08;8.67;;;7.97;;
13683;SDS011;6914;53.552;9.908;2023-04-24T09:43:40;9.27;;;8.27;;
13683;SDS011;6914;53.552;9.908;2023-04-24T09:46:07;11.27;;;8.20;;
13683;SDS011;6914;53.552;9.908;2023-04-24T09:48:37;8.30;;;7.70;;
13683;SDS011;6914;53.552;9.908;2023-04-24T09:51:04;8.43;;;7.80;;
13683;SDS011;6914;53.552;9.908;2023-04-24T09:53:35;12.63;;;9.33;;
13683;SDS011;6914;53.552;9.908;2023-04-24T09:56:07;9.93;;;9.03;;
13683;SDS011;6914;53.552;9.908;2023-04-24T09:58:35;9.03;;;8.30;;
13683;SDS011;6914;53.552;9.908;2023-04-24T10:01:02;9.77;;;8.83;;
13683;SDS011;6914;53.552;9.908;2023-04-24T10:03:37;11.70;;;10.63;;
13683;SDS011;6914;53.552;9.908;2023-04-24T10:06:07;12.10;;;11.07;;
13683;SDS011;6914;53.552;9.908;2023-04-24T10:08:37;11.67;;;10.47;;
13683;SDS011;6914;53.552;9.908;2023-04-24T10:11:05;12.37;;;11.20;;
13683;SDS011;6914;53.552;9.908;2023-04-24T10:13:36;11.70;;;10.70;;
13683;SDS011;6914;53.552;9.908;2023-04-24T10:16:04;14.03;;;12.53;;
13683;SDS011;6914;53.552;9.908;2023-04-24T10:18:33;12.60;;;11.27;;
13683;SDS011;6914;53.552;9.908;2023-04-24T10:21:03;13.07;;;11.77;;
13683;SDS011;6914;53.552;9.908;2023-04-24T10:23:33;12.97;;;11.60;;
13683;SDS011;6914;53.552;9.908;2023-04-24T10:26:01;16.40;;;12.20;;
13683;SDS011;6914;53.552;9.908;2023-04-24T10:28:31;17.87;;;13.00;;
13683;SDS011;6914;53.552;9.908;2023-04-24T10:30:59;13.27;;;11.63;;
13683;SDS011;6914;53.552;9.908;2023-04-24T10:33:26;15.27;;;13.43;;
13683;SDS011;6914;53.552;9.908;2023-04-24T10:35:55;17.00;;;11.50;;
13683;SDS011;6914;53.552;9.908;2023-04-24T10:38:25;13.93;;;12.07;;
13683;SDS011;6914;53.552;9.908;2023-04-24T10:40:57;19.60;;;14.03;;
13683;SDS011;6914;53.552;9.908;2023-04-24T10:43:35;16.30;;;12.27;;
13683;SDS011;6914;53.552;9.908;2023-04-24T10:46:02;19.53;;;15.23;;
13683;SDS011;6914;53.552;9.908;2023-04-24T10:48:35;19.53;;;13.03;;
13683;SDS011;6914;53.552;9.908;2023-04-24T10:51:10;14.67;;;13.10;;
13683;SDS011;6914;53.552;9.908;2023-04-24T10:53:42;24.23;;;12.13;;
13683;SDS011;6914;53.552;9.908;2023-04-24T10:56:09;19.97;;;12.10;;
13683;SDS011;6914;53.552;9.908;2023-04-24T10:58:38;18.93;;;12.23;;
13683;SDS011;6914;53.552;9.908;2023-04-24T11:01:22;15.90;;;11.90;;
13683;SDS011;6914;53.552;9.908;2023-04-24T11:03:54;16.37;;;12.40;;
13683;SDS011;6914;53.552;9.908;2023-04-24T11:06:28;13.07;;;11.30;;
13683;SDS011;6914;53.552;9.908;2023-04-24T11:09:01;15.90;;;12.37;;
13683;SDS011;6914;53.552;9.908;2023-04-24T11:11:30;15.73;;;11.83;;
13683;SDS011;6914;53.552;9.908;2023-04-24T11:14:00;15.03;;;13.20;;
13683;SDS011;6914;53.552;9.908;2023-04-24T11:16:33;17.50;;;13.97;;
13683;SDS011;6914;53.552;9.908;2023-04-24T11:19:21;13.60;;;12.17;;
13683;SDS011;6914;53.552;9.908;2023-04-24T11:21:54;16.57;;;11.93;;
13683;SDS011;6914;53.552;9.908;2023-04-24T11:27:15;44.23;;;12.67;;
13683;SDS011;6914;53.552;9.908;2023-04-24T11:29:45;13.47;;;12.07;;
13683;SDS011;6914;53.552;9.908;2023-04-24T11:32:24;12.67;;;11.37;;
13683;SDS011;6914;53.552;9.908;2023-04-24T11:34:53;16.40;;;12.87;;
13683;SDS011;6914;53.552;9.908;2023-04-24T11:37:21;13.43;;;10.90;;
13683;SDS011;6914;53.552;9.908;2023-04-24T11:39:52;14.83;;;11.87;;
13683;SDS011;6914;53.552;9.908;2023-04-24T11:42:20;16.40;;;12.07;;
13683;SDS011;6914;53.552;9.908;2023-04-24T11:44:58;14.07;;;12.60;;
13683;SDS011;6914;53.552;9.908;2023-04-24T11:47:30;12.47;;;11.17;;
13683;SDS011;6914;53.552;9.908;2023-04-24T11:49:58;15.53;;;10.47;;
13683;SDS011;6914;53.552;9.908;2023-04-24T11:52:26;14.23;;;11.33;;
13683;SDS011;6914;53.552;9.908;2023-04-24T11:54:56;11.27;;;10.20;;
13683;SDS011;6914;53.552;9.908;2023-04-24T11:57:27;11.07;;;8.93;;
13683;SDS011;6914;53.552;9.908;2023-04-24T11:59:58;20.30;;;10.20;;
13683;SDS011;6914;53.552;9.908;2023-04-24T12:02:27;9.90;;;9.00;;
13683;SDS011;6914;53.552;9.908;2023-04-24T12:04:54;23.20;;;8.60;;
13683;SDS011;6914;53.552;9.908;2023-04-24T12:07:23;10.00;;;9.10;;
13683;SDS011;6914;53.552;9.908;2023-04-24T12:09:57;10.63;;;9.00;;
13683;SDS011;6914;53.552;9.908;2023-04-24T12:12:26;9.40;;;8.57;;
13683;SDS011;6914;53.552;9.908;2023-04-24T12:14:55;10.17;;;8.40;;
13683;SDS011;6914;53.552;9.908;2023-04-24T12:17:24;9.63;;;8.70;;
13683;SDS011;6914;53.552;9.908;2023-04-24T12:19:56;14.17;;;9.47;;
13683;SDS011;6914;53.552;9.908;2023-04-24T12:22:27;10.03;;;9.23;;
13683;SDS011;6914;53.552;9.908;2023-04-24T12:25:03;10.80;;;9.80;;
13683;SDS011;6914;53.552;9.908;2023-04-24T12:27:32;12.33;;;8.63;;
13683;SDS011;6914;53.552;9.908;2023-04-24T12:30:11;9.63;;;8.83;;
13683;SDS011;6914;53.552;9.908;2023-04-24T12:32:43;10.73;;;9.47;;
13683;SDS011;6914;53.552;9.908;2023-04-24T12:35:18;11.97;;;10.80;;
13683;SDS011;6914;53.552;9.908;2023-04-24T12:37:46;9.23;;;8.47;;
13683;SDS011;6914;53.552;9.908;2023-04-24T12:40:17;10.73;;;9.30;;
13683;SDS011;6914;53.552;9.908;2023-04-24T12:42:47;10.20;;;9.30;;
13683;SDS011;6914;53.552;9.908;2023-04-24T12:45:16;10.97;;;9.87;;
13683;SDS011;6914;53.552;9.908;2023-04-24T12:47:44;10.60;;;8.70;;
13683;SDS011;6914;53.552;9.908;2023-04-24T12:50:14;11.70;;;9.30;;
13683;SDS011;6914;53.552;9.908;2023-04-24T12:52:47;10.47;;;9.47;;
13683;SDS011;6914;53.552;9.908;2023-04-24T12:55:29;9.97;;;9.17;;
13683;SDS011;6914;53.552;9.908;2023-04-24T12:58:03;10.20;;;9.30;;
13683;SDS011;6914;53.552;9.908;2023-04-24T13:00:32;9.70;;;8.83;;
13683;SDS011;6914;53.552;9.908;2023-04-24T13:02:59;10.00;;;9.07;;
13683;SDS011;6914;53.552;9.908;2023-04-24T13:05:29;10.10;;;9.20;;
13683;SDS011;6914;53.552;9.908;2023-04-24T13:07:58;10.63;;;9.37;;
13683;SDS011;6914;53.552;9.908;2023-04-24T13:10:27;8.70;;;7.83;;
13683;SDS011;6914;53.552;9.908;2023-04-24T13:12:54;11.30;;;9.00;;
13683;SDS011;6914;53.552;9.908;2023-04-24T13:15:20;8.93;;;8.00;;
13683;SDS011;6914;53.552;9.908;2023-04-24T13:17:50;8.00;;;7.37;;
13683;SDS011;6914;53.552;9.908;2023-04-24T13:20:20;9.30;;;8.50;;
13683;SDS011;6914;53.552;9.908;2023-04-24T13:22:47;11.40;;;7.20;;
13683;SDS011;6914;53.552;9.908;2023-04-24T13:25:17;7.63;;;7.13;;
13683;SDS011;6914;53.552;9.908;2023-04-24T13:27:46;8.00;;;7.30;;
13683;SDS011;6914;53.552;9.908;2023-04-24T13:30:16;7.57;;;7.07;;
13683;SDS011;6914;53.552;9.908;2023-04-24T13:32:43;8.77;;;8.17;;
13683;SDS011;6914;53.552;9.908;2023-04-24T13:35:11;6.13;;;5.67;;
13683;SDS011;6914;53.552;9.908;2023-04-24T13:37:52;7.70;;;7.20;;
13683;SDS011;6914;53.552;9.908;2023-04-24T13:40:18;46.10;;;10.37;;
13683;SDS011;6914;53.552;9.908;2023-04-24T13:42:48;20.63;;;7.73;;
13683;SDS011;6914;53.552;9.908;2023-04-24T13:45:34;6.93;;;6.43;;
13683;SDS011;6914;53.552;9.908;2023-04-24T13:48:02;8.17;;;7.50;;
13683;SDS011;6914;53.552;9.908;2023-04-24T13:50:31;7.43;;;6.83;;
13683;SDS011;6914;53.552;9.908;2023-04-24T13:52:58;8.07;;;7.50;;
13683;SDS011;6914;53.552;9.908;2023-04-24T13:55:27;8.53;;;7.47;;
13683;SDS011;6914;53.552;9.908;2023-04-24T13:57:57;9.43;;;8.50;;
13683;SDS011;6914;53.552;9.908;2023-04-24T14:00:30;9.50;;;6.67;;
13683;SDS011;6914;53.552;9.908;2023-04-24T14:02:58;7.27;;;6.67;;
13683;SDS011;6914;53.552;9.908;2023-04-24T14:05:28;7.40;;;7.00;;
13683;SDS011;6914;53.552;9.908;2023-04-24T14:07:56;11.13;;;6.60;;
13683;SDS011;6914;53.552;9.908;2023-04-24T14:10:23;7.43;;;6.90;;
13683;SDS011;6914;53.552;9.908;2023-04-24T14:12:50;8.03;;;7.20;;
13683;SDS011;6914;53.552;9.908;2023-04-24T14:15:20;8.20;;;7.50;;
13683;SDS011;6914;53.552;9.908;2023-04-24T14:17:51;6.70;;;6.30;;
13683;SDS011;6914;53.552;9.908;2023-04-24T14:20:19;9.43;;;7.77;;
13683;SDS011;6914;53.552;9.908;2023-04-24T14:22:46;7.83;;;7.40;;
13683;SDS011;6914;53.552;9.908;2023-04-24T14:25:16;8.10;;;7.33;;
13683;SDS011;6914;53.552;9.908;2023-04-24T14:27:45;8.07;;;7.57;;
13683;SDS011;6914;53.552;9.908;2023-04-24T14:30:24;8.70;;;8.07;;
13683;SDS011;6914;53.552;9.908;2023-04-24T14:32:51;8.53;;;7.73;;
13683;SDS011;6914;53.552;9.908;2023-04-24T14:35:18;10.20;;;8.33;;
13683;SDS011;6914;53.552;9.908;2023-04-24T14:37:45;8.80;;;8.20;;
13683;SDS011;6914;53.552;9.908;2023-04-24T14:40:16;12.80;;;8.83;;
13683;SDS011;6914;53.552;9.908;2023-04-24T14:42:44;9.43;;;8.80;;
13683;SDS011;6914;53.552;9.908;2023-04-24T14:45:11;9.70;;;9.00;;
13683;SDS011;6914;53.552;9.908;2023-04-24T14:47:42;11.37;;;10.13;;
13683;SDS011;6914;53.552;9.908;2023-04-24T14:50:16;11.97;;;10.97;;
13683;SDS011;6914;53.552;9.908;2023-04-24T14:52:44;12.80;;;11.50;;
13683;SDS011;6914;53.552;9.908;2023-04-24T14:55:18;11.63;;;10.73;;
13683;SDS011;6914;53.552;9.908;2023-04-24T14:58:00;14.80;;;12.40;;
13683;SDS011;6914;53.552;9.908;2023-04-24T15:00:30;12.83;;;11.57;;
13683;SDS011;6914;53.552;9.908;2023-04-24T15:06:36;14.50;;;13.10;;
13683;SDS011;6914;53.552;9.908;2023-04-24T15:09:08;14.67;;;10.80;;
13683;SDS011;6914;53.552;9.908;2023-04-24T15:11:48;11.93;;;10.73;;